createdAt,value
2022-12-31T00:01:16.129Z,1.00
2022-12-31T00:04:02.544Z,0.50
2022-12-31T00:06:48.914Z,0.50
2022-12-31T00:09:35.438Z,0.50
2022-12-31T00:12:22.139Z,0.73
2022-12-31T00:15:09.849Z,1.43
2022-12-31T00:17:56.596Z,0.83
2022-12-31T00:20:43.272Z,0.83
2022-12-31T00:23:29.826Z,0.40
2022-12-31T00:26:19.544Z,0.63
2022-12-31T00:29:06.531Z,0.43
2022-12-31T00:31:53.200Z,0.53
2022-12-31T00:34:39.500Z,1.10
2022-12-31T00:37:26.311Z,0.50
2022-12-31T00:40:12.856Z,0.40
2022-12-31T00:42:59.428Z,0.73
2022-12-31T00:45:46.146Z,39.93
2022-12-31T00:48:33.969Z,0.20
2022-12-31T00:51:23.319Z,0.30
2022-12-31T00:54:10.190Z,1.50
2022-12-31T00:56:56.857Z,0.60
2022-12-31T00:59:43.111Z,0.40
2022-12-31T01:02:29.851Z,0.47
2022-12-31T01:05:21.739Z,0.40
2022-12-31T01:08:08.698Z,1.43
2022-12-31T01:11:13.860Z,0.50
2022-12-31T01:14:15.392Z,0.70
2022-12-31T01:17:02.194Z,0.30
2022-12-31T01:19:48.584Z,0.60
2022-12-31T01:22:35.110Z,0.40
2022-12-31T01:25:24.633Z,0.57
2022-12-31T01:28:11.070Z,0.40
2022-12-31T01:30:57.812Z,0.30
2022-12-31T01:33:45.088Z,0.30
2022-12-31T01:36:33.679Z,0.50
2022-12-31T01:39:20.174Z,0.40
2022-12-31T01:42:06.717Z,0.20
2022-12-31T01:44:55.228Z,0.40
2022-12-31T01:47:49.925Z,0.40
2022-12-31T01:50:38.973Z,0.40
2022-12-31T01:53:25.508Z,0.93
2022-12-31T01:56:12.104Z,0.30
2022-12-31T01:58:59.378Z,0.30
2022-12-31T02:01:48.366Z,0.33
2022-12-31T02:04:35.021Z,1.07
2022-12-31T02:07:22.636Z,0.60
2022-12-31T02:10:09.319Z,1.20
2022-12-31T02:12:56.116Z,1.03
2022-12-31T02:16:07.394Z,0.43
2022-12-31T02:19:31.293Z,1.40
2022-12-31T02:22:36.229Z,0.30
2022-12-31T02:25:35.238Z,0.50
2022-12-31T02:28:56.126Z,2.10
2022-12-31T02:31:52.989Z,1.60
2022-12-31T02:34:50.386Z,0.37
2022-12-31T02:37:39.296Z,0.40
2022-12-31T02:40:26.020Z,1.10
2022-12-31T02:43:12.621Z,0.50
2022-12-31T02:46:19.341Z,0.63
2022-12-31T02:49:38.398Z,0.60
2022-12-31T02:52:43.556Z,1.90
2022-12-31T02:56:03.248Z,0.53
2022-12-31T02:59:24.654Z,0.70
2022-12-31T03:02:15.861Z,0.47
2022-12-31T03:05:03.688Z,0.70
2022-12-31T03:07:51.059Z,0.50
2022-12-31T03:10:37.750Z,0.70
2022-12-31T03:13:25.070Z,0.97
2022-12-31T03:16:11.631Z,1.17
2022-12-31T03:19:16.921Z,0.73
2022-12-31T03:22:22.070Z,0.50
2022-12-31T03:25:32.327Z,1.23
2022-12-31T03:28:21.354Z,0.43
2022-12-31T03:31:08.029Z,0.57
2022-12-31T03:33:54.761Z,0.50
2022-12-31T03:36:41.139Z,1.23
2022-12-31T03:39:27.886Z,0.53
2022-12-31T03:42:14.447Z,1.00
2022-12-31T03:45:00.968Z,0.50
2022-12-31T03:47:48.262Z,1.33
2022-12-31T03:50:35.728Z,0.90
2022-12-31T03:53:22.922Z,1.67
2022-12-31T03:56:09.401Z,0.47
2022-12-31T03:58:56.575Z,0.90
2022-12-31T04:01:43.257Z,0.60
2022-12-31T04:04:29.984Z,0.80
2022-12-31T04:07:16.433Z,0.60
2022-12-31T04:10:05.030Z,0.63
2022-12-31T04:12:51.602Z,0.67
2022-12-31T04:15:37.951Z,0.80
2022-12-31T04:18:24.485Z,1.27
2022-12-31T04:21:14.040Z,1.10
2022-12-31T04:24:01.799Z,0.60
2022-12-31T04:26:48.050Z,0.97
2022-12-31T04:29:35.255Z,0.60
2022-12-31T04:32:21.842Z,0.97
2022-12-31T04:35:09.857Z,0.70
2022-12-31T04:37:56.762Z,0.53
2022-12-31T04:41:04.022Z,1.50
2022-12-31T04:43:56.060Z,0.93
2022-12-31T04:46:43.133Z,0.63
2022-12-31T04:49:29.523Z,0.40
2022-12-31T04:52:16.230Z,0.53
2022-12-31T04:55:02.784Z,2.33
2022-12-31T04:57:49.479Z,0.87
2022-12-31T05:00:35.840Z,0.70
2022-12-31T05:03:25.107Z,0.47
2022-12-31T05:06:20.509Z,0.60
2022-12-31T05:09:07.000Z,0.83
2022-12-31T05:11:53.404Z,0.70
2022-12-31T05:14:40.034Z,0.50
2022-12-31T05:17:26.377Z,0.90
2022-12-31T05:20:13.101Z,0.73
2022-12-31T05:22:59.933Z,0.60
2022-12-31T05:25:47.792Z,0.60
2022-12-31T05:28:34.518Z,2.93
2022-12-31T05:31:20.815Z,0.77
2022-12-31T05:34:07.362Z,0.43
2022-12-31T05:36:53.844Z,1.00
2022-12-31T05:39:40.786Z,0.50
2022-12-31T05:42:27.213Z,0.50
2022-12-31T05:45:13.560Z,0.80
2022-12-31T05:48:00.139Z,0.73
2022-12-31T05:50:47.034Z,1.30
2022-12-31T05:53:34.393Z,0.50
2022-12-31T05:56:20.867Z,0.43
2022-12-31T05:59:07.143Z,1.77
2022-12-31T06:01:54.049Z,0.70
2022-12-31T06:04:40.521Z,0.63
2022-12-31T06:07:27.480Z,0.40
2022-12-31T06:10:13.784Z,0.43
2022-12-31T06:13:00.499Z,1.57
2022-12-31T06:15:47.129Z,0.60
2022-12-31T06:18:33.906Z,0.77
2022-12-31T06:21:21.584Z,0.70
2022-12-31T06:24:08.227Z,1.60
2022-12-31T06:26:54.910Z,0.37
2022-12-31T06:29:41.449Z,0.80
2022-12-31T06:32:28.008Z,0.80
2022-12-31T06:35:27.666Z,1.17
2022-12-31T06:38:14.695Z,0.60
2022-12-31T06:41:07.931Z,1.00
2022-12-31T06:43:54.577Z,1.03
2022-12-31T06:46:41.130Z,0.60
2022-12-31T06:49:27.965Z,1.00
2022-12-31T06:52:14.374Z,0.50
2022-12-31T06:55:01.183Z,0.60
2022-12-31T06:57:48.142Z,1.70
2022-12-31T07:00:34.590Z,1.43
2022-12-31T07:03:37.630Z,3.57
2022-12-31T07:06:32.910Z,0.63
2022-12-31T07:09:44.822Z,1.57
2022-12-31T07:12:59.434Z,1.00
2022-12-31T07:16:09.581Z,1.63
2022-12-31T07:19:09.567Z,0.67
2022-12-31T07:21:58.618Z,0.60
2022-12-31T07:24:45.523Z,2.07
2022-12-31T07:27:50.028Z,0.90
2022-12-31T07:30:52.539Z,0.90
2022-12-31T07:33:57.891Z,1.10
2022-12-31T07:36:50.164Z,0.40
2022-12-31T07:39:45.991Z,0.70
2022-12-31T07:42:52.360Z,1.23
2022-12-31T07:45:52.030Z,0.80
2022-12-31T07:48:38.639Z,0.50
2022-12-31T07:51:25.408Z,1.30
2022-12-31T07:54:14.403Z,0.60
2022-12-31T07:57:01.131Z,1.33
2022-12-31T07:59:47.835Z,0.80
2022-12-31T08:02:53.724Z,0.70
2022-12-31T08:05:43.050Z,0.80
2022-12-31T08:08:58.194Z,0.70
2022-12-31T08:12:01.331Z,1.10
2022-12-31T08:14:48.855Z,1.83
2022-12-31T08:17:35.546Z,1.10
2022-12-31T08:20:22.173Z,0.70
2022-12-31T08:23:41.056Z,0.47
2022-12-31T08:26:39.249Z,1.27
2022-12-31T08:29:39.997Z,0.77
2022-12-31T08:33:00.600Z,0.90
2022-12-31T08:36:24.451Z,0.80
2022-12-31T08:39:28.401Z,0.70
2022-12-31T08:42:21.196Z,0.70
2022-12-31T08:45:29.045Z,1.60
2022-12-31T08:48:42.031Z,5.00
2022-12-31T08:51:28.795Z,1.40
2022-12-31T08:54:15.376Z,0.70
2022-12-31T08:57:21.171Z,0.60
2022-12-31T09:00:13.223Z,0.60
2022-12-31T09:03:24.634Z,0.83
2022-12-31T09:06:27.133Z,0.70
2022-12-31T09:09:32.951Z,1.90
2022-12-31T09:12:38.422Z,0.70
2022-12-31T09:15:34.918Z,0.60
2022-12-31T09:18:28.329Z,2.00
2022-12-31T09:21:18.282Z,0.87
2022-12-31T09:24:09.339Z,0.67
2022-12-31T09:27:27.554Z,1.30
2022-12-31T09:30:16.600Z,0.70
2022-12-31T09:33:12.811Z,0.70
2022-12-31T09:36:14.774Z,0.70
2022-12-31T09:39:30.670Z,0.80
2022-12-31T09:42:17.669Z,1.37
2022-12-31T09:45:24.453Z,3.70
2022-12-31T09:48:17.215Z,1.70
2022-12-31T09:51:20.377Z,0.47
2022-12-31T09:54:23.473Z,4.33
2022-12-31T09:57:31.421Z,0.70
2022-12-31T10:00:23.967Z,1.23
2022-12-31T10:03:31.626Z,1.07
2022-12-31T10:07:09.445Z,0.53
2022-12-31T10:10:23.576Z,2.13
2022-12-31T10:13:37.996Z,1.00
2022-12-31T10:16:42.521Z,3.60
2022-12-31T10:19:59.877Z,0.87
2022-12-31T10:22:46.424Z,0.70
2022-12-31T10:26:00.764Z,0.50
2022-12-31T10:29:10.533Z,0.63
2022-12-31T10:32:15.493Z,1.07
2022-12-31T10:35:26.792Z,1.13
2022-12-31T10:38:32.246Z,0.67
2022-12-31T10:41:40.622Z,0.67
2022-12-31T10:44:36.029Z,0.50
2022-12-31T10:47:44.198Z,1.77
2022-12-31T10:50:55.442Z,0.57
2022-12-31T10:53:53.899Z,0.80
2022-12-31T10:57:15.715Z,0.57
2022-12-31T11:00:02.217Z,1.10
2022-12-31T11:03:25.156Z,0.40
2022-12-31T11:06:39.133Z,0.80
2022-12-31T11:09:56.947Z,0.37
2022-12-31T11:13:10.784Z,0.70
2022-12-31T11:16:12.599Z,0.70
2022-12-31T11:19:15.021Z,0.57
2022-12-31T11:22:25.067Z,0.80
2022-12-31T11:25:24.696Z,1.33
2022-12-31T11:28:22.298Z,1.13
2022-12-31T11:31:37.177Z,0.57
2022-12-31T11:34:38.641Z,0.93
2022-12-31T11:37:32.872Z,0.40
2022-12-31T11:40:54.237Z,0.60
2022-12-31T11:44:01.084Z,0.63
2022-12-31T11:47:10.102Z,0.90
2022-12-31T11:50:27.422Z,0.53
2022-12-31T11:53:32.817Z,0.60
2022-12-31T11:56:23.192Z,0.60
2022-12-31T11:59:18.831Z,0.67
2022-12-31T12:02:21.595Z,0.60
2022-12-31T12:05:11.387Z,0.80
2022-12-31T12:07:58.510Z,0.60
2022-12-31T12:10:52.752Z,0.50
2022-12-31T12:13:39.351Z,1.10
2022-12-31T12:16:28.381Z,0.70
2022-12-31T12:19:18.306Z,2.20
2022-12-31T12:22:31.236Z,3.67
2022-12-31T12:25:25.902Z,1.80
2022-12-31T12:28:18.351Z,1.43
2022-12-31T12:31:05.490Z,0.70
2022-12-31T12:33:52.447Z,1.17
2022-12-31T12:36:47.015Z,1.33
2022-12-31T12:39:54.376Z,1.13
2022-12-31T12:42:49.730Z,0.87
2022-12-31T12:45:52.215Z,0.90
2022-12-31T12:48:46.475Z,0.60
2022-12-31T12:52:03.239Z,0.70
2022-12-31T12:55:24.624Z,1.00
2022-12-31T12:58:29.807Z,2.30
2022-12-31T13:01:46.122Z,0.67
2022-12-31T13:04:39.595Z,1.33
2022-12-31T13:08:04.936Z,1.63
2022-12-31T13:11:11.588Z,0.73
2022-12-31T13:14:16.353Z,1.17
2022-12-31T13:17:22.456Z,1.93
2022-12-31T13:20:24.793Z,1.70
2022-12-31T13:23:27.743Z,1.20
2022-12-31T13:26:21.674Z,0.83
2022-12-31T13:29:17.357Z,0.70
2022-12-31T13:32:09.139Z,0.67
2022-12-31T13:35:24.760Z,1.70
2022-12-31T13:38:40.483Z,2.27
2022-12-31T13:41:41.807Z,1.00
2022-12-31T13:44:49.629Z,0.50
2022-12-31T13:47:45.922Z,0.67
2022-12-31T13:50:39.300Z,0.90
2022-12-31T13:53:38.402Z,1.83
2022-12-31T13:56:29.880Z,0.53
2022-12-31T13:59:22.711Z,0.50
2022-12-31T14:02:35.488Z,1.03
2022-12-31T14:05:56.466Z,0.40
2022-12-31T14:08:44.437Z,1.53
2022-12-31T14:11:53.752Z,0.60
2022-12-31T14:15:09.827Z,0.47
2022-12-31T14:18:11.273Z,0.67
2022-12-31T14:21:08.204Z,0.73
2022-12-31T14:24:13.087Z,1.00
2022-12-31T14:27:05.031Z,0.70
2022-12-31T14:30:07.229Z,0.70
2022-12-31T14:33:22.011Z,0.60
2022-12-31T14:36:52.975Z,0.50
2022-12-31T14:39:59.175Z,2.20
2022-12-31T14:42:59.973Z,1.13
2022-12-31T14:46:12.853Z,0.87
2022-12-31T14:49:15.327Z,1.27
2022-12-31T14:52:09.396Z,0.43
2022-12-31T14:55:23.378Z,0.93
2022-12-31T14:58:37.847Z,0.90
2022-12-31T15:01:27.974Z,1.03
2022-12-31T15:04:15.444Z,1.37
2022-12-31T15:07:37.834Z,0.70
2022-12-31T15:10:46.421Z,1.40
2022-12-31T15:14:03.555Z,1.30
2022-12-31T15:17:16.297Z,0.80
2022-12-31T15:20:38.418Z,0.70
2022-12-31T15:23:35.413Z,0.83
2022-12-31T15:26:28.601Z,1.13
2022-12-31T15:29:26.495Z,1.47
2022-12-31T15:32:20.589Z,1.00
2022-12-31T15:35:27.050Z,1.53
2022-12-31T15:38:13.589Z,0.93
2022-12-31T15:41:01.305Z,0.80
2022-12-31T15:43:52.799Z,0.80
2022-12-31T15:46:42.726Z,1.00
2022-12-31T15:49:37.240Z,1.07
2022-12-31T15:52:32.260Z,0.90
2022-12-31T15:55:46.380Z,1.70
2022-12-31T15:58:36.044Z,1.00
2022-12-31T16:01:34.113Z,0.80
2022-12-31T16:04:24.339Z,1.33
2022-12-31T16:07:12.429Z,1.63
2022-12-31T16:10:02.688Z,0.97
2022-12-31T16:12:49.803Z,0.50
2022-12-31T16:15:37.026Z,1.30
2022-12-31T16:18:23.445Z,1.10
2022-12-31T16:21:32.885Z,2.07
2022-12-31T16:24:32.760Z,2.40
2022-12-31T16:27:19.201Z,0.90
2022-12-31T16:30:18.906Z,2.63
2022-12-31T16:33:11.467Z,2.70
2022-12-31T16:36:00.609Z,1.43
2022-12-31T16:38:47.639Z,0.97
2022-12-31T16:41:42.750Z,2.10
2022-12-31T16:44:30.362Z,1.00
2022-12-31T16:47:29.882Z,1.63
2022-12-31T16:50:20.523Z,3.50
2022-12-31T16:53:07.845Z,3.80
2022-12-31T16:55:59.936Z,11.63
2022-12-31T16:58:46.713Z,9.37
2022-12-31T17:01:37.076Z,4.17
2022-12-31T17:04:24.538Z,3.97
2022-12-31T17:07:39.440Z,3.13
2022-12-31T17:10:36.481Z,4.13
2022-12-31T17:13:30.361Z,1.53
2022-12-31T17:16:25.194Z,2.67
2022-12-31T17:19:35.013Z,4.13
2022-12-31T17:22:36.725Z,6.60
2022-12-31T17:25:30.532Z,5.60
2022-12-31T17:28:27.879Z,5.47
2022-12-31T17:31:26.871Z,6.10
2022-12-31T17:34:13.618Z,3.53
2022-12-31T17:37:18.647Z,8.90
2022-12-31T17:40:49.135Z,3.73
2022-12-31T17:43:12.969Z,3.10
2022-12-31T17:46:00.139Z,3.60
2022-12-31T17:48:51.950Z,3.60
2022-12-31T17:51:42.511Z,3.33
2022-12-31T17:54:31.967Z,2.30
2022-12-31T17:57:26.374Z,4.33
2022-12-31T18:00:22.053Z,2.00
2022-12-31T18:03:08.902Z,2.67
2022-12-31T18:05:55.594Z,2.33
2022-12-31T18:08:42.583Z,2.90
2022-12-31T18:11:29.566Z,2.10
2022-12-31T18:14:16.632Z,2.10
2022-12-31T18:17:03.393Z,2.37
2022-12-31T18:20:06.383Z,2.27
2022-12-31T18:22:53.295Z,2.60
2022-12-31T18:28:24.808Z,2.53
2022-12-31T18:31:30.798Z,2.30
2022-12-31T18:34:18.205Z,2.77
2022-12-31T18:37:19.471Z,2.17
2022-12-31T18:40:08.438Z,2.23
2022-12-31T18:42:58.415Z,2.80
2022-12-31T18:45:48.792Z,2.50
2022-12-31T18:48:35.620Z,2.53
2022-12-31T18:51:31.257Z,4.43
2022-12-31T18:54:18.516Z,3.63
2022-12-31T18:57:08.954Z,4.60
2022-12-31T18:59:56.162Z,5.57
2022-12-31T19:02:42.421Z,4.47
2022-12-31T19:05:31.399Z,5.27
2022-12-31T19:08:19.780Z,3.73
2022-12-31T19:11:06.648Z,3.17
2022-12-31T19:13:53.359Z,2.87
2022-12-31T19:16:39.727Z,3.37
2022-12-31T19:19:26.568Z,4.03
2022-12-31T19:22:15.302Z,3.27
2022-12-31T19:25:01.746Z,4.20
2022-12-31T19:27:49.525Z,4.20
2022-12-31T19:30:36.564Z,3.90
2022-12-31T19:33:22.975Z,4.10
2022-12-31T19:36:16.090Z,4.83
2022-12-31T19:39:04.572Z,3.77
2022-12-31T19:41:58.574Z,3.30
2022-12-31T19:44:45.662Z,3.10
2022-12-31T19:47:32.186Z,3.27
2022-12-31T19:50:27.105Z,4.07
2022-12-31T19:53:16.817Z,6.40
2022-12-31T19:56:03.844Z,8.97
2022-12-31T19:58:50.489Z,4.93
2022-12-31T20:01:37.412Z,4.23
2022-12-31T20:04:24.382Z,4.33
2022-12-31T20:07:11.278Z,4.63
2022-12-31T20:09:58.633Z,4.17
2022-12-31T20:12:45.072Z,5.00
2022-12-31T20:15:32.126Z,4.90
2022-12-31T20:18:21.161Z,5.20
2022-12-31T20:21:13.904Z,6.00
2022-12-31T20:24:00.815Z,3.60
2022-12-31T20:26:47.475Z,6.50
2022-12-31T20:29:38.367Z,5.47
2022-12-31T20:32:25.152Z,4.43
2022-12-31T20:35:12.014Z,6.53
2022-12-31T20:37:58.552Z,7.40
2022-12-31T20:40:47.111Z,4.37
2022-12-31T20:43:34.642Z,4.60
2022-12-31T20:46:24.812Z,6.20
2022-12-31T20:49:11.649Z,5.70
2022-12-31T20:51:58.290Z,3.53
2022-12-31T20:54:44.653Z,4.83
2022-12-31T20:57:36.073Z,4.00
2022-12-31T21:00:23.093Z,5.60
2022-12-31T21:03:30.032Z,4.90
2022-12-31T21:06:16.507Z,5.23
2022-12-31T21:09:05.193Z,4.13
2022-12-31T21:12:10.146Z,4.23
2022-12-31T21:14:57.316Z,5.27
2022-12-31T21:17:44.154Z,16.90
2022-12-31T21:20:30.803Z,18.10
2022-12-31T21:23:18.818Z,6.70
2022-12-31T21:26:06.380Z,6.37
2022-12-31T21:28:53.864Z,5.90
2022-12-31T21:31:40.133Z,4.23
2022-12-31T21:34:26.553Z,4.50
2022-12-31T21:37:13.235Z,4.97
2022-12-31T21:39:59.787Z,4.53
2022-12-31T21:42:46.595Z,5.80
2022-12-31T21:45:34.331Z,9.57
2022-12-31T21:48:21.346Z,5.00
2022-12-31T21:51:11.378Z,4.40
2022-12-31T21:53:59.045Z,5.40
2022-12-31T21:56:45.888Z,5.03
2022-12-31T22:00:16.138Z,5.63
2022-12-31T22:03:17.959Z,5.17
2022-12-31T22:06:12.222Z,7.30
2022-12-31T22:08:58.653Z,5.40
2022-12-31T22:11:45.246Z,6.40
2022-12-31T22:14:31.605Z,5.17
2022-12-31T22:17:18.240Z,5.43
2022-12-31T22:23:12.058Z,6.20
2022-12-31T22:25:58.588Z,4.80
2022-12-31T22:28:46.434Z,6.23
2022-12-31T22:31:33.160Z,4.03
2022-12-31T22:34:19.857Z,4.13
2022-12-31T22:37:27.593Z,7.17
2022-12-31T22:40:12.840Z,6.80
2022-12-31T22:42:59.816Z,6.40
2022-12-31T22:45:46.358Z,6.63
2022-12-31T22:48:33.249Z,7.83
2022-12-31T22:51:20.877Z,7.73
2022-12-31T22:54:07.650Z,7.17
2022-12-31T22:56:54.123Z,8.33
2022-12-31T22:59:40.844Z,9.10
2022-12-31T23:02:27.510Z,7.13
2022-12-31T23:05:15.587Z,9.60
2022-12-31T23:08:18.729Z,20.07
2022-12-31T23:11:10.041Z,58.07
2022-12-31T23:14:14.898Z,39.40
2022-12-31T23:17:30.950Z,41.30
2022-12-31T23:20:44.578Z,58.73
2022-12-31T23:23:31.563Z,56.77
2022-12-31T23:26:23.392Z,41.57
2022-12-31T23:29:11.036Z,59.17
2022-12-31T23:31:57.905Z,53.07
2022-12-31T23:34:46.375Z,276.63
2022-12-31T23:37:33.528Z,230.10
2022-12-31T23:40:34.161Z,185.13
2022-12-31T23:43:24.678Z,197.60
2022-12-31T23:46:12.379Z,233.67
2022-12-31T23:48:59.081Z,200.37
2022-12-31T23:51:45.900Z,215.27
2022-12-31T23:54:32.498Z,194.40
2022-12-31T23:57:24.330Z,163.63
